Time;durP1;ratioP1;P1;durP2;ratioP2;P2;SDS_P1;SDS_P2;PMS_P1;PMS_P2;Temp;Humidity;BMP_temperature;BMP_pressure;BME280_temperature;BME280_humidity;BME280_pressure;Samples;Min_cycle;Max_cycle;Signal;HPM_P1;HPM_P2
2023/07/08 00:02:12;;;;;;;2.47;1.70;;;;;;;20.58;62.01;101638.28;5131452;27;20091;-38
2023/07/08 00:04:38;;;;;;;4.30;1.77;;;;;;;20.68;62.35;101637.44;5130783;27;20487;-38
2023/07/08 00:07:04;;;;;;;4.03;2.00;;;;;;;20.67;61.58;101640.47;5130699;27;20074;-38
2023/07/08 00:09:30;;;;;;;3.35;1.65;;;;;;;20.56;61.72;101635.00;5130830;27;20051;-38
2023/07/08 00:11:57;;;;;;;2.88;1.73;;;;;;;20.49;61.29;101628.97;5122132;27;20051;-38
2023/07/08 00:14:22;;;;;;;4.38;1.85;;;;;;;20.51;61.46;101631.47;5122384;27;20356;-38
2023/07/08 00:16:49;;;;;;;4.60;2.08;;;;;;;20.48;61.51;101629.25;5116910;28;20039;-38
2023/07/08 00:19:18;;;;;;;4.20;1.90;;;;;;;20.45;62.51;101629.81;5116727;28;20081;-38
2023/07/08 00:21:47;;;;;;;2.95;1.90;;;;;;;20.35;62.00;101627.06;5116849;27;20050;-38
2023/07/08 00:24:12;;;;;;;3.05;1.65;;;;;;;20.36;62.95;101624.06;5117286;28;20064;-38
2023/07/08 00:26:38;;;;;;;4.00;1.58;;;;;;;20.36;62.17;101621.31;5116988;28;20540;-38
2023/07/08 00:29:09;;;;;;;5.10;1.80;;;;;;;20.21;61.81;101605.69;5116606;28;20050;-38
2023/07/08 00:31:34;;;;;;;2.97;1.60;;;;;;;20.37;62.28;101619.38;5117463;28;20055;-38
2023/07/08 00:34:03;;;;;;;2.47;1.60;;;;;;;20.37;62.19;101620.19;5116300;28;20120;-38
2023/07/08 00:36:29;;;;;;;2.28;1.52;;;;;;;20.34;62.35;101604.25;5117068;28;20157;-38
2023/07/08 00:38:55;;;;;;;3.63;1.70;;;;;;;20.39;61.51;101608.91;5116411;28;20035;-38
2023/07/08 00:41:27;;;;;;;3.45;1.42;;;;;;;20.33;61.70;101603.44;5117029;28;20027;-38
2023/07/08 00:43:55;;;;;;;4.03;1.60;;;;;;;20.34;62.51;101609.75;5116633;28;20057;-38
2023/07/08 00:46:26;;;;;;;3.78;1.83;;;;;;;20.23;61.89;101589.72;5115991;28;20487;-38
2023/07/08 00:49:00;;;;;;;3.15;1.90;;;;;;;20.28;61.86;101606.19;5115915;28;20179;-38
2023/07/08 00:51:26;;;;;;;2.35;1.65;;;;;;;20.29;61.80;101605.09;5117072;28;20418;-38
2023/07/08 00:53:51;;;;;;;3.05;1.50;;;;;;;20.21;61.80;101616.66;5116087;28;20031;-35
2023/07/08 00:56:26;;;;;;;3.75;1.55;;;;;;;20.23;61.98;101603.47;5116389;28;20024;-35
2023/07/08 00:58:52;;;;;;;3.65;1.83;;;;;;;20.17;62.22;101601.84;5116028;28;20089;-35
2023/07/08 01:01:18;;;;;;;2.97;1.60;;;;;;;20.11;62.99;101605.69;5116678;28;20471;-36
2023/07/08 01:03:50;;;;;;;3.13;1.90;;;;;;;20.02;62.46;101607.34;5115993;28;20048;-36
2023/07/08 01:06:21;;;;;;;4.40;2.20;;;;;;;19.89;63.11;101608.72;5116778;28;20413;-36
2023/07/08 01:08:50;;;;;;;4.13;1.73;;;;;;;19.81;63.82;101598.28;5115981;28;20032;-36
2023/07/08 01:11:15;;;;;;;6.70;1.90;;;;;;;19.85;63.76;101593.88;5116133;28;20027;-36
2023/07/08 01:13:44;;;;;;;4.22;1.90;;;;;;;19.79;63.73;101612.28;5116036;28;20047;-37
2023/07/08 01:16:09;;;;;;;3.25;1.85;;;;;;;19.71;64.19;101599.09;5115714;28;20024;-36
2023/07/08 01:18:36;;;;;;;4.05;1.77;;;;;;;19.82;64.92;101610.09;5115629;28;20027;-36
2023/07/08 01:21:06;;;;;;;5.68;2.20;;;;;;;19.63;64.89;101593.34;5116185;28;20345;-36
2023/07/08 01:23:32;;;;;;;4.28;1.95;;;;;;;19.62;65.59;101598.03;5114932;28;20051;-36
2023/07/08 01:25:59;;;;;;;2.38;1.80;;;;;;;19.54;65.75;101613.06;5116049;28;20085;-36
2023/07/08 01:28:26;;;;;;;3.78;1.60;;;;;;;19.64;65.78;101605.97;5115400;27;20028;-36
2023/07/08 01:30:52;;;;;;;5.07;2.00;;;;;;;19.54;65.15;101601.25;5115972;28;20023;-36
2023/07/08 01:33:22;;;;;;;2.47;1.88;;;;;;;19.51;65.57;101601.78;5115268;28;20028;-36
2023/07/08 01:35:51;;;;;;;3.08;1.48;;;;;;;19.54;65.30;101601.25;5115763;28;20038;-36
2023/07/08 01:38:22;;;;;;;2.00;1.52;;;;;;;19.63;65.20;101607.91;5113980;28;20028;-36
2023/07/08 01:40:50;;;;;;;3.97;2.13;;;;;;;19.48;65.66;101580.41;5115946;28;20027;-36
2023/07/08 01:43:16;;;;;;;2.10;1.60;;;;;;;19.52;66.04;101595.22;5115062;28;20027;-36
2023/07/08 01:45:42;;;;;;;4.05;1.80;;;;;;;19.43;65.67;101594.13;5115846;28;20034;-37
2023/07/08 01:48:12;;;;;;;3.78;1.88;;;;;;;19.41;65.63;101593.56;5114773;28;20027;-36
2023/07/08 01:50:45;;;;;;;3.90;1.52;;;;;;;19.30;66.32;101582.56;5115015;28;20493;-36
2023/07/08 01:53:16;;;;;;;4.25;1.80;;;;;;;19.37;66.70;101587.78;5114991;28;20023;-36
2023/07/08 01:55:41;;;;;;;3.15;1.83;;;;;;;19.32;66.73;101598.75;5114985;28;20063;-37
2023/07/08 01:58:06;;;;;;;2.97;1.80;;;;;;;19.42;66.89;101593.31;5114809;28;20054;-36
2023/07/08 02:00:32;;;;;;;2.88;1.80;;;;;;;19.29;65.72;101572.72;5115776;28;20047;-36
2023/07/08 02:02:57;;;;;;;2.85;1.98;;;;;;;19.29;66.67;101582.84;5115335;27;20035;-36
2023/07/08 02:05:23;;;;;;;4.70;1.60;;;;;;;19.29;66.71;101566.41;5114850;28;20442;-37
2023/07/08 02:07:49;;;;;;;3.55;1.80;;;;;;;19.30;66.93;101574.34;5114753;28;20080;-36
2023/07/08 02:10:14;;;;;;;5.40;2.20;;;;;;;19.29;66.46;101569.16;5115201;28;20362;-36
2023/07/08 02:12:39;;;;;;;3.55;1.98;;;;;;;19.32;66.91;101570.50;5115239;28;20045;-36
2023/07/08 02:15:06;;;;;;;4.07;1.60;;;;;;;19.31;66.90;101569.69;5114304;28;20472;-36
2023/07/08 02:17:32;;;;;;;3.38;1.83;;;;;;;19.15;66.53;101554.31;5114281;28;20469;-36
2023/07/08 02:19:57;;;;;;;3.03;1.75;;;;;;;19.20;67.09;101566.09;5114957;28;20062;-36
2023/07/08 02:22:22;;;;;;;4.22;1.75;;;;;;;19.18;67.41;101560.09;5114588;28;20083;-36
2023/07/08 02:24:48;;;;;;;2.22;1.50;;;;;;;19.21;67.08;101559.53;5114623;28;20027;-36
2023/07/08 02:27:14;;;;;;;4.80;1.98;;;;;;;19.15;67.53;101555.13;5114376;28;20077;-36
2023/07/08 02:29:40;;;;;;;4.47;2.00;;;;;;;19.01;67.54;101532.91;5114594;28;20023;-37
2023/07/08 02:32:06;;;;;;;3.50;1.63;;;;;;;19.05;67.77;101549.63;5114639;27;20031;-37
2023/07/08 02:34:31;;;;;;;4.03;2.10;;;;;;;18.90;68.34;101542.19;5113743;28;20479;-36
2023/07/08 02:36:57;;;;;;;5.38;2.30;;;;;;;18.88;69.35;101546.28;5114581;28;20041;-37
2023/07/08 02:39:23;;;;;;;4.50;1.80;;;;;;;18.89;69.20;101543.28;5114175;28;20020;-37
2023/07/08 02:41:48;;;;;;;2.95;1.85;;;;;;;18.93;69.49;101538.06;5114493;28;20156;-36
2023/07/08 02:44:13;;;;;;;3.25;1.88;;;;;;;18.91;68.61;101541.09;5113728;28;20028;-36
2023/07/08 02:46:39;;;;;;;2.97;1.77;;;;;;;18.89;69.39;101534.25;5114094;28;20039;-36
2023/07/08 02:49:04;;;;;;;;;;;;;;;18.94;67.80;101545.22;5115239;28;20035;-36
2023/07/08 02:51:30;;;;;;;7.70;4.40;;;;;;;18.83;69.40;101547.09;5113721;28;19912;-36
2023/07/08 02:53:55;;;;;;;4.70;2.40;;;;;;;18.77;69.82;101543.50;5114249;28;20034;-36
2023/07/08 02:56:22;;;;;;;;;;;;;;;18.88;68.81;101552.59;5114706;28;20066;-36
2023/07/08 02:58:47;;;;;;;5.13;2.05;;;;;;;18.74;71.12;101549.56;5113858;28;19969;-37
2023/07/08 03:01:17;;;;;;;2.85;2.00;;;;;;;18.76;70.16;101549.28;5115066;28;20473;-36
2023/07/08 03:03:46;;;;;;;5.10;1.67;;;;;;;18.82;70.17;101550.94;5114193;28;20096;-36
2023/07/08 03:06:12;;;;;;;3.78;1.90;;;;;;;18.84;70.03;101553.38;5114155;28;20441;-36
2023/07/08 03:08:38;;;;;;;4.45;1.90;;;;;;;18.75;69.87;101548.44;5114143;28;20031;-36
2023/07/08 03:11:06;;;;;;;5.55;2.00;;;;;;;18.76;69.97;101552.00;5114421;28;20471;-36
2023/07/08 03:13:32;;;;;;;3.25;2.50;;;;;;;18.79;70.24;101554.22;5114083;28;20030;-36
2023/07/08 03:16:01;;;;;;;3.42;2.25;;;;;;;18.62;70.88;101562.59;5113525;28;20463;-36
2023/07/08 03:18:28;;;;;;;6.22;2.00;;;;;;;18.60;71.28;101559.31;5113904;28;20028;-36
2023/07/08 03:20:56;;;;;;;4.78;1.80;;;;;;;18.62;71.11;101562.59;5113479;28;20028;-36
2023/07/08 03:23:24;;;;;;;3.03;1.88;;;;;;;18.53;71.56;101550.50;5113791;28;20420;-36
2023/07/08 03:25:50;;;;;;;2.47;1.85;;;;;;;18.61;71.54;101555.47;5114323;28;20527;-36
2023/07/08 03:28:16;;;;;;;3.70;2.00;;;;;;;18.52;71.35;101554.34;5113731;28;20102;-36
2023/07/08 03:30:43;;;;;;;3.10;1.63;;;;;;;18.57;72.71;101559.03;5114230;28;20028;-36
2023/07/08 03:33:09;;;;;;;3.30;1.98;;;;;;;18.49;72.63;101554.88;5113382;28;20078;-36
2023/07/08 03:35:35;;;;;;;5.25;2.22;;;;;;;18.47;71.75;101559.78;5113962;28;20035;-36
2023/07/08 03:38:00;;;;;;;3.05;2.03;;;;;;;18.45;72.36;101557.34;5114175;28;20028;-36
2023/07/08 03:40:25;;;;;;;5.35;2.10;;;;;;;18.48;71.88;101555.97;5113599;28;20073;-36
2023/07/08 03:42:51;;;;;;;5.22;2.10;;;;;;;18.44;72.09;101555.66;5114167;28;20468;-36
2023/07/08 03:45:16;;;;;;;;;;;;;;;18.57;70.60;101559.84;5114949;28;20052;-36
2023/07/08 03:47:42;;;;;;;3.22;1.80;;;;;;;18.37;71.82;101540.56;5117489;28;19915;-36
2023/07/08 03:50:28;;;;;;;;;;;;;;;18.58;70.73;101566.13;5117858;28;20092;-36
2023/07/08 03:52:54;;;;;;;4.95;2.03;;;;;;;18.40;72.38;101560.03;5116951;28;19908;-36
2023/07/08 03:55:20;;;;;;;4.18;1.95;;;;;;;18.42;72.94;101562.50;5118139;28;20139;-36
2023/07/08 03:57:46;;;;;;;5.43;1.95;;;;;;;18.41;73.53;101555.38;5117832;28;20023;-36
2023/07/08 04:00:12;;;;;;;2.75;2.00;;;;;;;18.46;72.95;101558.16;5117561;28;20048;-36
2023/07/08 04:02:38;;;;;;;3.88;1.73;;;;;;;18.44;72.82;101563.06;5117182;28;20059;-36
2023/07/08 04:05:04;;;;;;;4.88;1.80;;;;;;;18.44;72.63;101565.78;5117114;28;20114;-36
2023/07/08 04:07:29;;;;;;;3.15;1.98;;;;;;;18.46;72.51;101575.41;5116772;28;20098;-36
2023/07/08 04:09:55;;;;;;;4.10;1.58;;;;;;;18.50;72.82;101572.97;5117022;28;20027;-36
2023/07/08 04:12:21;;;;;;;;;;;;;;;18.60;71.33;101575.75;5118270;28;20127;-36
2023/07/08 04:14:46;;;;;;;5.22;1.83;;;;;;;18.49;72.19;101565.81;5116660;28;19918;-36
2023/07/08 04:17:12;;;;;;;4.43;1.80;;;;;;;18.51;72.15;101566.41;5117404;28;20023;-36
2023/07/08 04:19:39;;;;;;;4.05;1.83;;;;;;;18.51;73.15;101560.91;5117076;28;20024;-36
2023/07/08 04:22:06;;;;;;;4.55;2.00;;;;;;;18.53;72.81;101573.25;5117080;28;20435;-36
2023/07/08 04:24:31;;;;;;;3.72;1.92;;;;;;;18.57;72.39;101575.47;5116976;28;20084;-36
2023/07/08 04:26:58;;;;;;;4.63;2.03;;;;;;;18.57;73.07;101576.28;5117009;28;20487;-36
2023/07/08 04:29:24;;;;;;;2.83;1.98;;;;;;;18.62;73.13;101587.25;5116324;28;20034;-36
2023/07/08 04:31:49;;;;;;;4.32;2.05;;;;;;;18.61;73.31;101582.88;5116578;28;20031;-36
2023/07/08 04:34:16;;;;;;;3.08;1.98;;;;;;;18.58;72.92;101571.63;5116327;27;20034;-36
2023/07/08 04:36:41;;;;;;;3.70;2.10;;;;;;;18.58;73.74;101566.97;5116809;28;20023;-36
2023/07/08 04:39:08;;;;;;;3.60;2.00;;;;;;;18.72;73.40;101579.09;5116434;28;20503;-36
2023/07/08 04:41:40;;;;;;;3.40;2.15;;;;;;;18.73;71.92;101575.28;5116991;28;20365;-37
2023/07/08 04:44:07;;;;;;;3.50;2.13;;;;;;;18.81;72.90;101581.34;5116407;28;20063;-37
2023/07/08 04:46:38;;;;;;;3.15;2.08;;;;;;;18.88;72.10;101576.41;5116643;28;20102;-37
2023/07/08 04:49:06;;;;;;;3.90;1.92;;;;;;;18.92;72.97;101566.56;5116619;28;20034;-37
2023/07/08 04:51:32;;;;;;;5.97;2.35;;;;;;;19.01;72.93;101571.25;5117356;28;20027;-37
2023/07/08 04:53:57;;;;;;;4.78;2.00;;;;;;;19.02;73.01;101569.34;5116182;28;20036;-37
2023/07/08 04:56:25;;;;;;;6.00;2.22;;;;;;;19.13;72.24;101570.19;5116627;28;20443;-37
2023/07/08 04:58:51;;;;;;;3.20;1.95;;;;;;;19.11;71.31;101558.69;5115991;28;20027;-37
2023/07/08 05:01:16;;;;;;;3.20;2.08;;;;;;;19.25;71.95;101570.78;5115943;28;20128;-37
2023/07/08 05:03:42;;;;;;;3.65;2.00;;;;;;;19.21;71.01;101565.00;5116249;28;20024;-37
2023/07/08 05:06:07;;;;;;;4.40;1.90;;;;;;;19.39;71.26;101571.09;5115960;28;20031;-37
2023/07/08 05:08:32;;;;;;;4.55;2.30;;;;;;;19.39;70.85;101565.59;5115594;28;20032;-37
2023/07/08 05:10:59;;;;;;;3.42;2.35;;;;;;;19.40;71.44;101557.09;5115585;28;20106;-37
2023/07/08 05:13:24;;;;;;;3.50;2.10;;;;;;;19.49;71.18;101562.84;5116541;28;20019;-37
2023/07/08 05:15:49;;;;;;;3.33;2.25;;;;;;;19.58;71.44;101560.41;5116272;28;20028;-37
2023/07/08 05:18:15;;;;;;;3.55;2.40;;;;;;;19.59;70.44;101573.00;5115617;28;20148;-37
2023/07/08 05:20:40;;;;;;;3.58;2.10;;;;;;;19.54;72.08;101562.88;5115730;28;20456;-37
2023/07/08 05:23:05;;;;;;;4.72;2.22;;;;;;;19.58;70.88;101568.63;5115926;28;20024;-37
2023/07/08 05:25:32;;;;;;;5.70;2.42;;;;;;;19.67;72.99;101567.84;5115251;28;20115;-37
2023/07/08 05:27:58;;;;;;;5.13;2.67;;;;;;;19.69;70.80;101557.41;5115819;28;20036;-37
2023/07/08 05:30:23;;;;;;;4.18;2.70;;;;;;;19.73;70.29;101566.72;5115403;28;20418;-37
2023/07/08 05:32:49;;;;;;;4.97;2.50;;;;;;;19.83;71.20;101554.13;5115750;28;20055;-37
2023/07/08 05:35:15;;;;;;;4.10;2.67;;;;;;;19.83;70.72;101560.41;5115360;28;20032;-37
2023/07/08 05:37:41;;;;;;;4.05;2.90;;;;;;;19.94;71.39;101567.53;5115918;28;20024;-37
2023/07/08 05:40:08;;;;;;;6.05;2.97;;;;;;;19.99;71.88;101564.78;5115203;28;20421;-37
2023/07/08 05:42:33;;;;;;;5.05;3.33;;;;;;;20.08;71.47;101566.97;5114911;28;20035;-37
2023/07/08 05:44:58;;;;;;;6.60;3.50;;;;;;;20.17;72.04;101566.13;5114841;28;20041;-37
2023/07/08 05:47:24;;;;;;;11.80;9.35;;;;;;;20.19;70.65;101561.19;5115196;28;20034;-37
2023/07/08 05:49:49;;;;;;;7.15;3.90;;;;;;;20.25;70.69;101557.34;5115158;28;20106;-37
2023/07/08 05:52:15;;;;;;;5.00;3.05;;;;;;;20.36;69.96;101557.31;5114179;28;20032;-36
2023/07/08 05:54:41;;;;;;;6.97;3.30;;;;;;;20.36;69.29;101560.06;5115009;28;20038;-38
2023/07/08 05:57:09;;;;;;;5.30;4.03;;;;;;;20.49;70.72;101556.72;5114955;28;20023;-36
2023/07/08 05:59:36;;;;;;;5.28;3.90;;;;;;;20.47;68.77;101553.44;5114892;28;20056;-36
2023/07/08 06:02:03;;;;;;;9.05;5.65;;;;;;;20.47;68.41;101565.25;5114922;28;20069;-35
2023/07/08 06:04:28;;;;;;;7.53;4.35;;;;;;;20.58;69.91;101560.53;5114943;28;20057;-36
2023/07/08 06:06:54;;;;;;;7.43;4.05;;;;;;;20.71;70.00;101554.44;5115325;28;20027;-37
2023/07/08 06:09:19;;;;;;;19.85;12.07;;;;;;;20.80;68.72;101562.94;5114423;28;20379;-36
2023/07/08 06:11:44;;;;;;;10.57;5.50;;;;;;;20.85;68.84;101564.84;5114636;28;20024;-36
2023/07/08 06:14:10;;;;;;;8.27;5.35;;;;;;;20.94;68.68;101568.66;5114648;28;20031;-37
2023/07/08 06:16:35;;;;;;;7.43;3.63;;;;;;;21.07;68.08;101573.50;5114537;28;20073;-36
2023/07/08 06:19:01;;;;;;;5.90;4.00;;;;;;;21.16;67.40;101571.81;5114756;28;20027;-36
2023/07/08 06:21:26;;;;;;;22.95;13.02;;;;;;;21.18;68.15;101569.59;5115110;28;20023;-36
2023/07/08 06:23:52;;;;;;;8.63;5.05;;;;;;;21.07;66.63;101535.81;5114111;28;20028;-36
2023/07/08 06:26:18;;;;;;;7.07;4.57;;;;;;;21.24;66.96;101551.13;5114432;28;20066;-36
2023/07/08 06:28:43;;;;;;;8.55;3.88;;;;;;;21.31;66.21;101552.47;5114369;28;20036;-36
2023/07/08 06:31:08;;;;;;;7.60;4.00;;;;;;;21.45;66.29;101568.34;5114700;28;20032;-36
2023/07/08 06:33:34;;;;;;;6.53;3.67;;;;;;;21.55;66.76;101574.59;5114083;28;20034;-36
2023/07/08 06:35:59;;;;;;;7.57;4.07;;;;;;;21.57;65.40;101566.88;5114047;28;20024;-36
2023/07/08 06:38:24;;;;;;;5.28;3.63;;;;;;;21.54;65.18;101550.94;5113762;28;20058;-36
2023/07/08 06:40:50;;;;;;;5.00;3.20;;;;;;;21.63;67.36;101553.91;5114351;28;20062;-36
2023/07/08 06:43:15;;;;;;;7.80;3.60;;;;;;;21.76;65.21;101560.66;5114370;28;20475;-36
2023/07/08 06:45:41;;;;;;;4.57;3.58;;;;;;;21.92;64.79;101567.69;5114865;28;20063;-36
2023/07/08 06:48:06;;;;;;;4.85;3.25;;;;;;;22.00;65.26;101566.22;5113936;28;20020;-36
2023/07/08 06:50:32;;;;;;;4.85;3.13;;;;;;;22.04;62.94;101565.34;5114718;28;20353;-36
2023/07/08 06:52:57;;;;;;;7.25;3.30;;;;;;;22.11;62.79;101567.81;5113789;28;20023;-36
2023/07/08 06:55:23;;;;;;;5.00;3.15;;;;;;;22.19;62.99;101560.81;5113874;28;20456;-36
2023/07/08 06:57:48;;;;;;;6.93;3.20;;;;;;;22.25;62.83;101563.25;5114071;28;20042;-36
2023/07/08 07:00:14;;;;;;;8.02;3.85;;;;;;;22.29;62.34;101561.53;5114044;28;20138;-36
2023/07/08 07:02:40;;;;;;;5.03;3.10;;;;;;;22.40;63.60;101569.69;5114355;28;20364;-36
2023/07/08 07:05:06;;;;;;;6.00;3.65;;;;;;;22.43;60.71;101561.66;5113762;28;20031;-36
2023/07/08 07:07:31;;;;;;;8.50;3.63;;;;;;;22.51;59.84;101557.44;5114100;28;20110;-36
2023/07/08 07:09:56;;;;;;;5.68;3.38;;;;;;;22.60;63.44;101564.78;5114011;28;20524;-36
2023/07/08 07:12:26;;;;;;;8.23;3.22;;;;;;;22.70;61.36;101557.50;5114157;28;20032;-36
2023/07/08 07:14:52;;;;;;;9.43;3.55;;;;;;;22.72;60.54;101564.34;5113784;28;20020;-36
2023/07/08 07:17:20;;;;;;;8.10;3.72;;;;;;;22.83;59.37;101559.50;5114387;28;20470;-37
2023/07/08 07:19:45;;;;;;;5.68;3.42;;;;;;;22.82;59.88;101541.31;5114376;28;20107;-36
2023/07/08 07:22:11;;;;;;;6.70;3.70;;;;;;;22.95;58.80;101550.84;5117976;28;20051;-36
2023/07/08 07:24:36;;;;;;;4.43;3.60;;;;;;;22.99;59.00;101552.72;5117810;28;20491;-37
2023/07/08 07:27:02;;;;;;;7.22;3.58;;;;;;;23.08;61.51;101550.06;5118328;28;20364;-36
2023/07/08 07:29:27;;;;;;;6.43;3.53;;;;;;;23.16;58.51;101554.13;5117478;28;20024;-36
2023/07/08 07:31:52;;;;;;;7.13;3.45;;;;;;;23.26;59.58;101553.97;5117979;28;20036;-36
2023/07/08 07:34:18;;;;;;;7.60;4.10;;;;;;;23.25;58.52;101542.09;5117844;28;20054;-36
2023/07/08 07:36:43;;;;;;;7.30;3.50;;;;;;;23.42;58.12;101557.28;5118259;28;20054;-36
2023/07/08 07:39:09;;;;;;;5.70;3.78;;;;;;;23.46;58.73;101555.59;5117612;28;20475;-37
2023/07/08 07:41:34;;;;;;;4.78;3.72;;;;;;;23.47;59.72;101551.69;5117615;28;20498;-37
2023/07/08 07:43:59;;;;;;;10.63;4.10;;;;;;;23.60;58.75;101556.47;5117224;28;20036;-37
2023/07/08 07:46:25;;;;;;;7.38;3.80;;;;;;;23.71;60.06;101559.88;5117674;28;20024;-36
2023/07/08 07:48:50;;;;;;;9.32;3.70;;;;;;;23.78;59.26;101552.88;5117502;28;20043;-36
2023/07/08 07:51:16;;;;;;;7.18;4.10;;;;;;;23.84;57.65;101557.16;5117740;28;20024;-36
2023/07/08 07:53:41;;;;;;;5.30;4.00;;;;;;;23.93;57.89;101562.00;5117322;28;20455;-36
2023/07/08 07:56:07;;;;;;;8.25;4.10;;;;;;;24.01;58.15;101553.00;5116958;28;20042;-36
2023/07/08 07:58:33;;;;;;;10.18;4.50;;;;;;;24.11;58.17;101559.19;5117784;28;20023;-37
2023/07/08 08:00:58;;;;;;;9.15;4.60;;;;;;;24.11;58.89;101556.41;5116118;28;20062;-36
2023/07/08 08:03:24;;;;;;;5.35;3.85;;;;;;;24.19;57.32;101557.63;5117184;28;20081;-36
2023/07/08 08:05:50;;;;;;;8.18;4.30;;;;;;;24.30;57.37;101548.03;5117046;28;20030;-36
2023/07/08 08:08:16;;;;;;;9.00;4.35;;;;;;;24.49;58.79;101544.38;5116925;28;20019;-36
2023/07/08 08:10:44;;;;;;;6.00;4.20;;;;;;;24.49;57.83;101549.91;5117412;28;20027;-37
2023/07/08 08:13:11;;;;;;;5.22;4.60;;;;;;;24.58;56.78;101545.28;5116998;28;20055;-37
2023/07/08 08:15:37;;;;;;;7.25;4.40;;;;;;;24.65;57.74;101526.34;5116427;28;20111;-37
2023/07/08 08:18:03;;;;;;;6.50;4.45;;;;;;;24.76;58.14;101535.22;5117277;28;20055;-37
2023/07/08 08:20:29;;;;;;;7.78;4.72;;;;;;;24.90;55.90;101539.59;5117335;28;20417;-37
2023/07/08 08:22:55;;;;;;;6.68;4.20;;;;;;;25.08;55.22;101554.44;5117419;28;20024;-37
2023/07/08 08:25:23;;;;;;;6.63;4.47;;;;;;;25.06;57.10;101542.84;5117175;28;20075;-37
2023/07/08 08:27:48;;;;;;;6.47;4.45;;;;;;;25.17;56.25;101557.28;5116808;28;20039;-38
2023/07/08 08:30:14;;;;;;;9.00;4.85;;;;;;;25.27;56.79;101557.03;5116164;28;20043;-37
2023/07/08 08:32:39;;;;;;;7.40;5.05;;;;;;;25.39;56.05;101568.41;5116373;28;20028;-37
2023/07/08 08:35:05;;;;;;;8.13;4.55;;;;;;;25.41;56.45;101566.13;5116512;28;20455;-37
2023/07/08 08:37:31;;;;;;;8.63;5.03;;;;;;;25.57;54.16;101565.72;5116489;28;20543;-37
2023/07/08 08:39:56;;;;;;;5.45;4.55;;;;;;;25.65;55.08;101571.34;5116381;28;20115;-37
2023/07/08 08:42:40;;;;;;;7.55;4.82;;;;;;;25.77;55.97;101572.75;5116980;28;20031;-37
2023/07/08 08:45:11;;;;;;;6.32;4.80;;;;;;;25.89;54.78;101571.03;5116655;28;20103;-37
2023/07/08 08:47:42;;;;;;;6.38;4.63;;;;;;;26.09;53.73;101577.19;5116919;28;20031;-37
2023/07/08 08:50:32;;;;;;;6.70;4.93;;;;;;;26.20;53.77;101575.75;5116220;28;20411;-37
2023/07/08 08:53:02;;;;;;;7.82;5.30;;;;;;;26.32;52.74;101578.75;5116238;28;20032;-37
2023/07/08 08:55:28;;;;;;;6.63;4.70;;;;;;;26.55;52.81;101581.47;5116731;28;20365;-37
2023/07/08 08:58:11;;;;;;;7.72;4.22;;;;;;;26.73;50.80;101574.84;5116642;27;20035;-37
2023/07/08 09:00:46;;;;;;;7.32;4.38;;;;;;;26.68;50.81;101575.81;5116472;27;20052;-37
2023/07/08 09:03:16;;;;;;;7.00;5.13;;;;;;;26.78;50.17;101584.97;5116118;28;20372;-37
2023/07/08 09:05:45;;;;;;;7.43;5.20;;;;;;;26.89;51.24;101576.03;5116012;28;20099;-37
2023/07/08 09:08:27;;;;;;;11.18;4.78;;;;;;;27.07;50.46;101576.03;5116143;28;20106;-37
2023/07/08 09:11:11;;;;;;;7.43;4.63;;;;;;;27.23;51.54;101581.94;5116331;28;20027;-38
2023/07/08 09:13:37;;;;;;;6.43;4.63;;;;;;;27.32;49.62;101578.03;5116083;28;20027;-38
2023/07/08 09:16:24;;;;;;;7.90;5.20;;;;;;;27.26;48.06;101578.53;5115805;28;20032;-37
2023/07/08 09:19:00;;;;;;;8.55;4.80;;;;;;;27.31;48.08;101576.41;5116067;28;20375;-38
2023/07/08 09:21:40;;;;;;;5.25;4.47;;;;;;;27.47;49.35;101585.06;5114392;28;20026;-37
2023/07/08 09:24:15;;;;;;;9.50;5.03;;;;;;;27.55;48.56;101577.88;5116012;28;20110;-37
2023/07/08 09:26:41;;;;;;;9.03;5.30;;;;;;;27.71;45.72;101577.06;5115226;28;20080;-37
2023/07/08 09:29:09;;;;;;;6.00;4.80;;;;;;;27.62;46.43;101572.63;5116057;28;20040;-37
2023/07/08 09:31:39;;;;;;;7.50;4.95;;;;;;;27.93;48.82;101575.22;5115758;28;20471;-37
2023/07/08 09:34:17;;;;;;;7.30;4.70;;;;;;;28.18;46.08;101581.84;5115903;28;20031;-37
2023/07/08 09:36:47;;;;;;;7.40;4.90;;;;;;;28.22;45.62;101566.94;5114959;28;20055;-37
2023/07/08 09:39:15;;;;;;;5.82;4.65;;;;;;;28.33;47.83;101563.78;5115158;28;20028;-37
2023/07/08 09:41:43;;;;;;;8.98;5.40;;;;;;;28.48;49.38;101561.28;5115940;28;20070;-37
2023/07/08 09:44:26;;;;;;;7.22;4.70;;;;;;;28.48;47.33;101560.47;5114244;28;20028;-37
2023/07/08 09:46:55;;;;;;;7.10;4.88;;;;;;;28.57;45.76;101568.78;5115049;28;20034;-37
2023/07/08 09:49:29;;;;;;;6.00;4.90;;;;;;;28.64;44.48;101567.09;5115055;28;20511;-37
2023/07/08 09:51:54;;;;;;;7.65;4.80;;;;;;;28.61;44.51;101570.56;5114908;28;20019;-37
2023/07/08 09:54:22;;;;;;;7.03;5.22;;;;;;;28.61;42.74;101559.44;5114829;28;20114;-37
2023/07/08 09:56:57;;;;;;;6.90;4.70;;;;;;;28.70;41.91;101560.19;5115363;28;20487;-37
2023/07/08 09:59:28;;;;;;;7.45;4.95;;;;;;;28.70;41.74;101556.59;5114811;28;20058;-37
2023/07/08 10:01:55;;;;;;;8.57;5.55;;;;;;;28.72;41.33;101540.38;5115386;28;20412;-37
2023/07/08 10:04:21;;;;;;;5.72;4.82;;;;;;;28.97;43.83;101535.81;5114439;28;20116;-37
2023/07/08 10:06:47;;;;;;;7.15;4.93;;;;;;;29.30;45.11;101527.50;5115284;28;20363;-37
2023/07/08 10:09:19;;;;;;;6.05;4.65;;;;;;;29.32;42.29;101543.84;5114626;28;20036;-37
2023/07/08 10:11:53;;;;;;;4.95;4.45;;;;;;;29.47;42.78;101546.81;5114266;28;20494;-37
2023/07/08 10:14:22;;;;;;;5.70;4.40;;;;;;;29.50;43.16;101545.34;5115176;28;20028;-38
2023/07/08 10:16:47;;;;;;;6.15;5.20;;;;;;;29.50;38.99;101548.94;5114887;28;20052;-37
2023/07/08 10:19:16;;;;;;;5.75;4.90;;;;;;;29.45;38.12;101526.84;5114679;28;20024;-37
2023/07/08 10:21:41;;;;;;;6.28;5.30;;;;;;;29.53;38.40;101532.72;5114551;28;20031;-37
2023/07/08 10:24:12;;;;;;;8.07;5.30;;;;;;;29.87;38.53;101543.50;5114899;28;20035;-37
2023/07/08 10:26:39;;;;;;;8.70;4.82;;;;;;;29.99;39.19;101537.94;5113970;28;20039;-37
2023/07/08 10:29:28;;;;;;;7.40;4.75;;;;;;;30.36;37.32;101549.16;5114762;28;20425;-37
2023/07/08 10:32:14;;;;;;;7.95;5.28;;;;;;;30.24;38.68;101549.97;5114609;28;20027;-37
2023/07/08 10:34:47;;;;;;;6.05;4.72;;;;;;;30.11;40.31;101533.53;5114076;28;20034;-37
2023/07/08 10:37:32;;;;;;;7.22;4.45;;;;;;;30.22;39.01;101545.91;5114330;28;20034;-37
2023/07/08 10:40:12;;;;;;;6.30;4.57;;;;;;;30.28;41.12;101538.94;5114813;28;20035;-37
2023/07/08 10:43:04;;;;;;;7.60;4.50;;;;;;;30.53;39.19;101546.13;5113795;28;20035;-37
2023/07/08 10:45:53;;;;;;;6.65;4.78;;;;;;;30.96;37.57;101550.28;5109911;28;20055;-37
2023/07/08 10:48:47;;;;;;;5.95;4.63;;;;;;;30.85;37.43;101546.34;5114426;28;20016;-37
2023/07/08 10:51:32;;;;;;;6.10;5.05;;;;;;;30.63;37.04;101530.06;5114596;28;20038;-37
2023/07/08 10:54:21;;;;;;;6.70;4.80;;;;;;;30.84;37.10;101549.47;5114992;28;20067;-37
2023/07/08 10:56:54;;;;;;;6.70;4.85;;;;;;;30.80;39.22;101549.38;5114634;28;20069;-37
2023/07/08 10:59:42;;;;;;;8.15;5.07;;;;;;;30.97;39.00;101548.28;5114628;28;20355;-37
2023/07/08 11:02:31;;;;;;;5.95;4.70;;;;;;;30.91;38.32;101536.56;5114050;28;20047;-38
2023/07/08 11:05:06;;;;;;;6.68;4.65;;;;;;;31.01;39.88;101552.00;5114267;28;20028;-38
2023/07/08 11:07:43;;;;;;;10.18;5.38;;;;;;;31.18;39.07;101548.09;5113994;28;20028;-37
2023/07/08 11:10:20;;;;;;;8.57;4.80;;;;;;;31.33;38.81;101544.63;5113650;28;20479;-37
2023/07/08 11:12:49;;;;;;;6.80;4.75;;;;;;;31.37;38.34;101545.50;5113907;28;20032;-37
2023/07/08 11:15:23;;;;;;;5.68;4.50;;;;;;;31.75;36.85;101549.75;5113527;28;20023;-37
2023/07/08 11:18:00;;;;;;;5.38;4.68;;;;;;;31.49;36.58;101536.28;5114436;28;20024;-38
2023/07/08 11:20:39;;;;;;;6.45;4.78;;;;;;;31.65;34.71;101536.28;5113570;28;20041;-38
2023/07/08 11:23:40;;;;;;;5.95;5.10;;;;;;;31.76;36.19;101543.78;5113855;28;20024;-37
2023/07/08 11:26:37;;;;;;;7.90;4.88;;;;;;;31.93;34.52;101547.47;5108491;28;20044;-37
2023/07/08 11:29:03;;;;;;;7.93;5.07;;;;;;;32.05;32.26;101542.56;5097450;28;20043;-37
2023/07/08 11:31:33;;;;;;;5.82;5.03;;;;;;;32.05;33.01;101547.34;5114320;28;20451;-37
2023/07/08 11:34:00;;;;;;;5.53;4.50;;;;;;;32.28;32.12;101527.97;5113506;28;20082;-38